sensor_id;sensor_type;location;lat;lon;timestamp;P1;durP1;ratioP1;P2;durP2;ratioP2
4575;SDS011;2300;51.874;8.430;2023-01-29T00:01:02;71.37;;;34.90;;
4575;SDS011;2300;51.874;8.430;2023-01-29T00:03:29;77.37;;;36.37;;
4575;SDS011;2300;51.874;8.430;2023-01-29T00:05:57;71.03;;;36.63;;
4575;SDS011;2300;51.874;8.430;2023-01-29T00:08:23;74.17;;;36.53;;
4575;SDS011;2300;51.874;8.430;2023-01-29T00:10:50;77.53;;;35.83;;
4575;SDS011;2300;51.874;8.430;2023-01-29T00:13:16;74.20;;;35.70;;
4575;SDS011;2300;51.874;8.430;2023-01-29T00:15:51;73.67;;;35.60;;
4575;SDS011;2300;51.874;8.430;2023-01-29T00:18:18;76.43;;;37.27;;
4575;SDS011;2300;51.874;8.430;2023-01-29T00:20:45;79.03;;;38.27;;
4575;SDS011;2300;51.874;8.430;2023-01-29T00:23:13;82.87;;;39.90;;
4575;SDS011;2300;51.874;8.430;2023-01-29T00:25:39;78.00;;;38.60;;
4575;SDS011;2300;51.874;8.430;2023-01-29T00:28:06;80.87;;;39.47;;
4575;SDS011;2300;51.874;8.430;2023-01-29T00:30:32;77.10;;;38.70;;
4575;SDS011;2300;51.874;8.430;2023-01-29T00:32:59;80.30;;;37.93;;
4575;SDS011;2300;51.874;8.430;2023-01-29T00:35:25;86.83;;;38.63;;
4575;SDS011;2300;51.874;8.430;2023-01-29T00:37:53;82.53;;;39.60;;
4575;SDS011;2300;51.874;8.430;2023-01-29T00:40:21;83.80;;;39.10;;
4575;SDS011;2300;51.874;8.430;2023-01-29T00:42:48;79.30;;;38.13;;
4575;SDS011;2300;51.874;8.430;2023-01-29T00:45:32;79.70;;;38.73;;
4575;SDS011;2300;51.874;8.430;2023-01-29T00:48:00;80.50;;;39.03;;
4575;SDS011;2300;51.874;8.430;2023-01-29T00:50:27;83.90;;;40.50;;
4575;SDS011;2300;51.874;8.430;2023-01-29T00:52:54;82.17;;;39.50;;
4575;SDS011;2300;51.874;8.430;2023-01-29T00:55:22;80.53;;;38.87;;
4575;SDS011;2300;51.874;8.430;2023-01-29T00:57:49;78.77;;;36.80;;
4575;SDS011;2300;51.874;8.430;2023-01-29T01:00:16;78.67;;;39.10;;
4575;SDS011;2300;51.874;8.430;2023-01-29T01:02:44;78.90;;;40.00;;
4575;SDS011;2300;51.874;8.430;2023-01-29T01:05:28;79.33;;;38.97;;
4575;SDS011;2300;51.874;8.430;2023-01-29T01:07:55;80.67;;;39.77;;
4575;SDS011;2300;51.874;8.430;2023-01-29T01:10:25;76.03;;;37.53;;
4575;SDS011;2300;51.874;8.430;2023-01-29T01:12:53;81.47;;;40.83;;
4575;SDS011;2300;51.874;8.430;2023-01-29T01:15:22;82.00;;;40.83;;
4575;SDS011;2300;51.874;8.430;2023-01-29T01:17:53;78.93;;;39.13;;
4575;SDS011;2300;51.874;8.430;2023-01-29T01:20:20;75.83;;;39.20;;
4575;SDS011;2300;51.874;8.430;2023-01-29T01:22:47;82.00;;;41.30;;
4575;SDS011;2300;51.874;8.430;2023-01-29T01:25:14;79.07;;;41.03;;
4575;SDS011;2300;51.874;8.430;2023-01-29T01:27:42;86.23;;;42.70;;
4575;SDS011;2300;51.874;8.430;2023-01-29T01:30:09;88.23;;;41.90;;
4575;SDS011;2300;51.874;8.430;2023-01-29T01:32:37;88.70;;;41.40;;
4575;SDS011;2300;51.874;8.430;2023-01-29T01:35:04;78.97;;;38.93;;
4575;SDS011;2300;51.874;8.430;2023-01-29T01:37:31;88.63;;;42.03;;
4575;SDS011;2300;51.874;8.430;2023-01-29T01:40:01;88.60;;;43.03;;
4575;SDS011;2300;51.874;8.430;2023-01-29T01:42:30;83.10;;;40.47;;
4575;SDS011;2300;51.874;8.430;2023-01-29T01:44:59;80.87;;;40.30;;
4575;SDS011;2300;51.874;8.430;2023-01-29T01:47:30;75.73;;;39.07;;
4575;SDS011;2300;51.874;8.430;2023-01-29T01:50:02;78.67;;;37.37;;
4575;SDS011;2300;51.874;8.430;2023-01-29T01:52:33;78.53;;;39.53;;
4575;SDS011;2300;51.874;8.430;2023-01-29T01:55:03;80.97;;;38.27;;
4575;SDS011;2300;51.874;8.430;2023-01-29T01:57:31;82.77;;;39.67;;
4575;SDS011;2300;51.874;8.430;2023-01-29T02:00:01;79.90;;;40.37;;
4575;SDS011;2300;51.874;8.430;2023-01-29T02:02:35;79.37;;;37.97;;
4575;SDS011;2300;51.874;8.430;2023-01-29T02:05:20;75.37;;;38.30;;
4575;SDS011;2300;51.874;8.430;2023-01-29T02:08:04;79.97;;;38.93;;
4575;SDS011;2300;51.874;8.430;2023-01-29T02:10:48;84.23;;;39.03;;
4575;SDS011;2300;51.874;8.430;2023-01-29T02:13:15;77.47;;;39.27;;
4575;SDS011;2300;51.874;8.430;2023-01-29T02:15:44;76.90;;;38.13;;
4575;SDS011;2300;51.874;8.430;2023-01-29T02:18:14;76.00;;;38.63;;
4575;SDS011;2300;51.874;8.430;2023-01-29T02:20:43;78.23;;;39.00;;
4575;SDS011;2300;51.874;8.430;2023-01-29T02:23:19;81.83;;;38.40;;
4575;SDS011;2300;51.874;8.430;2023-01-29T02:29:04;70.80;;;35.40;;
4575;SDS011;2300;51.874;8.430;2023-01-29T02:31:49;72.50;;;35.93;;
4575;SDS011;2300;51.874;8.430;2023-01-29T02:34:24;75.80;;;37.70;;
4575;SDS011;2300;51.874;8.430;2023-01-29T02:37:17;70.60;;;35.43;;
4575;SDS011;2300;51.874;8.430;2023-01-29T02:39:50;74.43;;;36.30;;
4575;SDS011;2300;51.874;8.430;2023-01-29T02:42:22;75.57;;;36.50;;
4575;SDS011;2300;51.874;8.430;2023-01-29T02:44:55;73.37;;;37.03;;
4575;SDS011;2300;51.874;8.430;2023-01-29T02:47:27;68.67;;;35.40;;
4575;SDS011;2300;51.874;8.430;2023-01-29T02:50:02;75.37;;;36.93;;
4575;SDS011;2300;51.874;8.430;2023-01-29T02:52:34;77.03;;;37.63;;
4575;SDS011;2300;51.874;8.430;2023-01-29T02:55:08;76.47;;;38.23;;
4575;SDS011;2300;51.874;8.430;2023-01-29T02:57:42;73.67;;;35.97;;
4575;SDS011;2300;51.874;8.430;2023-01-29T03:00:14;76.23;;;36.83;;
4575;SDS011;2300;51.874;8.430;2023-01-29T03:02:44;81.17;;;37.50;;
4575;SDS011;2300;51.874;8.430;2023-01-29T03:05:17;76.77;;;37.07;;
4575;SDS011;2300;51.874;8.430;2023-01-29T03:07:52;71.07;;;35.23;;
4575;SDS011;2300;51.874;8.430;2023-01-29T03:10:25;75.17;;;35.93;;
4575;SDS011;2300;51.874;8.430;2023-01-29T03:13:00;74.03;;;35.67;;
4575;SDS011;2300;51.874;8.430;2023-01-29T03:15:33;68.10;;;34.20;;
4575;SDS011;2300;51.874;8.430;2023-01-29T03:18:08;71.77;;;35.03;;
4575;SDS011;2300;51.874;8.430;2023-01-29T03:20:39;68.80;;;34.23;;
4575;SDS011;2300;51.874;8.430;2023-01-29T03:23:12;71.97;;;34.97;;
4575;SDS011;2300;51.874;8.430;2023-01-29T03:25:47;71.13;;;35.80;;
4575;SDS011;2300;51.874;8.430;2023-01-29T03:28:33;71.43;;;34.07;;
4575;SDS011;2300;51.874;8.430;2023-01-29T03:31:19;70.07;;;34.57;;
4575;SDS011;2300;51.874;8.430;2023-01-29T03:34:05;74.23;;;34.60;;
4575;SDS011;2300;51.874;8.430;2023-01-29T03:36:41;69.57;;;34.47;;
4575;SDS011;2300;51.874;8.430;2023-01-29T03:39:14;72.60;;;35.10;;
4575;SDS011;2300;51.874;8.430;2023-01-29T03:41:43;69.40;;;33.80;;
4575;SDS011;2300;51.874;8.430;2023-01-29T03:44:15;68.20;;;33.80;;
4575;SDS011;2300;51.874;8.430;2023-01-29T03:46:49;69.70;;;33.73;;
4575;SDS011;2300;51.874;8.430;2023-01-29T03:49:22;72.30;;;34.83;;
4575;SDS011;2300;51.874;8.430;2023-01-29T03:51:59;66.87;;;33.00;;
4575;SDS011;2300;51.874;8.430;2023-01-29T03:54:30;71.93;;;34.13;;
4575;SDS011;2300;51.874;8.430;2023-01-29T03:57:08;69.03;;;33.43;;
4575;SDS011;2300;51.874;8.430;2023-01-29T03:59:42;67.00;;;32.60;;
4575;SDS011;2300;51.874;8.430;2023-01-29T04:02:17;68.23;;;34.53;;
4575;SDS011;2300;51.874;8.430;2023-01-29T04:04:51;72.43;;;35.17;;
4575;SDS011;2300;51.874;8.430;2023-01-29T04:07:22;72.17;;;35.23;;
4575;SDS011;2300;51.874;8.430;2023-01-29T04:09:51;71.40;;;33.10;;
4575;SDS011;2300;51.874;8.430;2023-01-29T04:12:23;74.10;;;33.47;;
4575;SDS011;2300;51.874;8.430;2023-01-29T04:14:51;69.07;;;31.80;;
4575;SDS011;2300;51.874;8.430;2023-01-29T04:17:23;68.93;;;33.70;;
4575;SDS011;2300;51.874;8.430;2023-01-29T04:19:56;68.23;;;34.47;;
4575;SDS011;2300;51.874;8.430;2023-01-29T04:22:25;69.77;;;33.53;;
4575;SDS011;2300;51.874;8.430;2023-01-29T04:24:57;70.33;;;33.40;;
4575;SDS011;2300;51.874;8.430;2023-01-29T04:27:28;69.13;;;32.87;;
4575;SDS011;2300;51.874;8.430;2023-01-29T04:30:06;68.37;;;33.37;;
4575;SDS011;2300;51.874;8.430;2023-01-29T04:32:46;69.47;;;33.13;;
4575;SDS011;2300;51.874;8.430;2023-01-29T04:35:25;61.20;;;30.40;;
4575;SDS011;2300;51.874;8.430;2023-01-29T04:38:00;70.30;;;31.80;;
4575;SDS011;2300;51.874;8.430;2023-01-29T04:40:34;65.17;;;32.70;;
4575;SDS011;2300;51.874;8.430;2023-01-29T04:43:07;68.70;;;33.57;;
4575;SDS011;2300;51.874;8.430;2023-01-29T04:45:43;71.23;;;33.77;;
4575;SDS011;2300;51.874;8.430;2023-01-29T04:48:25;68.97;;;32.63;;
4575;SDS011;2300;51.874;8.430;2023-01-29T04:50:56;70.73;;;33.33;;
4575;SDS011;2300;51.874;8.430;2023-01-29T04:53:34;73.07;;;32.87;;
4575;SDS011;2300;51.874;8.430;2023-01-29T04:56:10;64.33;;;31.80;;
4575;SDS011;2300;51.874;8.430;2023-01-29T04:58:45;67.03;;;32.37;;
4575;SDS011;2300;51.874;8.430;2023-01-29T05:01:15;72.23;;;33.40;;
4575;SDS011;2300;51.874;8.430;2023-01-29T05:03:48;68.33;;;33.97;;
4575;SDS011;2300;51.874;8.430;2023-01-29T05:06:17;70.93;;;34.37;;
4575;SDS011;2300;51.874;8.430;2023-01-29T05:08:45;69.67;;;33.53;;
4575;SDS011;2300;51.874;8.430;2023-01-29T05:11:14;72.43;;;32.93;;
4575;SDS011;2300;51.874;8.430;2023-01-29T05:13:42;71.77;;;35.03;;
4575;SDS011;2300;51.874;8.430;2023-01-29T05:16:08;72.47;;;33.60;;
4575;SDS011;2300;51.874;8.430;2023-01-29T05:18:39;70.23;;;34.07;;
4575;SDS011;2300;51.874;8.430;2023-01-29T05:21:07;73.10;;;33.93;;
4575;SDS011;2300;51.874;8.430;2023-01-29T05:23:35;67.73;;;33.13;;
4575;SDS011;2300;51.874;8.430;2023-01-29T05:26:02;70.50;;;33.67;;
4575;SDS011;2300;51.874;8.430;2023-01-29T05:28:29;70.87;;;33.73;;
4575;SDS011;2300;51.874;8.430;2023-01-29T05:30:55;70.47;;;32.97;;
4575;SDS011;2300;51.874;8.430;2023-01-29T05:33:22;66.27;;;31.80;;
4575;SDS011;2300;51.874;8.430;2023-01-29T05:35:50;77.63;;;34.20;;
4575;SDS011;2300;51.874;8.430;2023-01-29T05:38:18;71.03;;;34.60;;
4575;SDS011;2300;51.874;8.430;2023-01-29T05:40:44;73.83;;;34.30;;
4575;SDS011;2300;51.874;8.430;2023-01-29T05:43:15;73.37;;;35.10;;
4575;SDS011;2300;51.874;8.430;2023-01-29T05:45:42;74.60;;;33.53;;
4575;SDS011;2300;51.874;8.430;2023-01-29T05:48:16;71.73;;;34.40;;
4575;SDS011;2300;51.874;8.430;2023-01-29T05:50:42;73.90;;;35.07;;
4575;SDS011;2300;51.874;8.430;2023-01-29T05:53:09;70.43;;;33.70;;
4575;SDS011;2300;51.874;8.430;2023-01-29T05:55:37;70.87;;;34.43;;
4575;SDS011;2300;51.874;8.430;2023-01-29T05:58:03;78.07;;;34.80;;
4575;SDS011;2300;51.874;8.430;2023-01-29T06:00:30;69.87;;;34.30;;
4575;SDS011;2300;51.874;8.430;2023-01-29T06:02:57;78.13;;;35.83;;
4575;SDS011;2300;51.874;8.430;2023-01-29T06:05:24;75.83;;;35.53;;
4575;SDS011;2300;51.874;8.430;2023-01-29T06:07:50;75.00;;;35.97;;
4575;SDS011;2300;51.874;8.430;2023-01-29T06:10:17;73.53;;;36.67;;
4575;SDS011;2300;51.874;8.430;2023-01-29T06:12:45;78.03;;;35.73;;
4575;SDS011;2300;51.874;8.430;2023-01-29T06:15:11;74.90;;;34.67;;
4575;SDS011;2300;51.874;8.430;2023-01-29T06:17:39;75.63;;;33.97;;
4575;SDS011;2300;51.874;8.430;2023-01-29T06:20:06;75.70;;;34.33;;
4575;SDS011;2300;51.874;8.430;2023-01-29T06:22:34;75.70;;;33.30;;
4575;SDS011;2300;51.874;8.430;2023-01-29T06:25:00;78.83;;;35.70;;
4575;SDS011;2300;51.874;8.430;2023-01-29T06:27:27;74.90;;;34.67;;
4575;SDS011;2300;51.874;8.430;2023-01-29T06:29:55;79.63;;;37.63;;
4575;SDS011;2300;51.874;8.430;2023-01-29T06:32:21;79.20;;;36.93;;
4575;SDS011;2300;51.874;8.430;2023-01-29T06:34:48;77.13;;;36.77;;
4575;SDS011;2300;51.874;8.430;2023-01-29T06:37:14;79.47;;;36.87;;
4575;SDS011;2300;51.874;8.430;2023-01-29T06:39:41;82.83;;;36.30;;
4575;SDS011;2300;51.874;8.430;2023-01-29T06:42:08;73.10;;;35.60;;
4575;SDS011;2300;51.874;8.430;2023-01-29T06:44:35;80.13;;;36.77;;
4575;SDS011;2300;51.874;8.430;2023-01-29T06:47:02;73.90;;;36.33;;
4575;SDS011;2300;51.874;8.430;2023-01-29T06:49:29;75.10;;;36.10;;
4575;SDS011;2300;51.874;8.430;2023-01-29T06:51:55;79.67;;;35.93;;
4575;SDS011;2300;51.874;8.430;2023-01-29T06:54:22;77.20;;;35.87;;
4575;SDS011;2300;51.874;8.430;2023-01-29T06:56:48;76.97;;;35.97;;
4575;SDS011;2300;51.874;8.430;2023-01-29T06:59:15;79.33;;;37.40;;
4575;SDS011;2300;51.874;8.430;2023-01-29T07:01:41;76.97;;;37.33;;
4575;SDS011;2300;51.874;8.430;2023-01-29T07:04:09;76.87;;;36.40;;
4575;SDS011;2300;51.874;8.430;2023-01-29T07:06:36;77.17;;;37.77;;
4575;SDS011;2300;51.874;8.430;2023-01-29T07:09:03;75.97;;;35.83;;
4575;SDS011;2300;51.874;8.430;2023-01-29T07:11:29;74.37;;;37.10;;
4575;SDS011;2300;51.874;8.430;2023-01-29T07:13:56;78.73;;;36.60;;
4575;SDS011;2300;51.874;8.430;2023-01-29T07:16:23;79.00;;;37.03;;
4575;SDS011;2300;51.874;8.430;2023-01-29T07:18:50;81.17;;;37.33;;
4575;SDS011;2300;51.874;8.430;2023-01-29T07:21:18;81.70;;;38.70;;
4575;SDS011;2300;51.874;8.430;2023-01-29T07:23:44;82.53;;;38.10;;
4575;SDS011;2300;51.874;8.430;2023-01-29T07:26:10;84.50;;;39.47;;
4575;SDS011;2300;51.874;8.430;2023-01-29T07:28:37;82.27;;;40.77;;
4575;SDS011;2300;51.874;8.430;2023-01-29T07:31:05;86.03;;;39.53;;
4575;SDS011;2300;51.874;8.430;2023-01-29T07:33:32;84.73;;;38.77;;
4575;SDS011;2300;51.874;8.430;2023-01-29T07:35:59;85.57;;;39.60;;
4575;SDS011;2300;51.874;8.430;2023-01-29T07:38:27;86.10;;;41.10;;
4575;SDS011;2300;51.874;8.430;2023-01-29T07:40:53;86.20;;;39.20;;
4575;SDS011;2300;51.874;8.430;2023-01-29T07:43:20;91.03;;;41.83;;
4575;SDS011;2300;51.874;8.430;2023-01-29T07:45:48;83.77;;;40.67;;
4575;SDS011;2300;51.874;8.430;2023-01-29T07:48:15;89.53;;;41.50;;
4575;SDS011;2300;51.874;8.430;2023-01-29T07:50:41;87.30;;;42.03;;
4575;SDS011;2300;51.874;8.430;2023-01-29T07:53:10;91.40;;;42.90;;
4575;SDS011;2300;51.874;8.430;2023-01-29T07:55:39;85.53;;;39.47;;
4575;SDS011;2300;51.874;8.430;2023-01-29T07:58:08;87.33;;;41.30;;
4575;SDS011;2300;51.874;8.430;2023-01-29T08:00:34;89.73;;;42.43;;
4575;SDS011;2300;51.874;8.430;2023-01-29T08:03:02;83.13;;;41.63;;
4575;SDS011;2300;51.874;8.430;2023-01-29T08:05:29;87.77;;;41.93;;
4575;SDS011;2300;51.874;8.430;2023-01-29T08:07:55;88.60;;;42.07;;
4575;SDS011;2300;51.874;8.430;2023-01-29T08:10:22;90.10;;;41.47;;
4575;SDS011;2300;51.874;8.430;2023-01-29T08:12:53;80.13;;;40.37;;
4575;SDS011;2300;51.874;8.430;2023-01-29T08:15:20;87.87;;;41.10;;
4575;SDS011;2300;51.874;8.430;2023-01-29T08:17:47;82.20;;;40.70;;
4575;SDS011;2300;51.874;8.430;2023-01-29T08:20:13;87.63;;;41.73;;
4575;SDS011;2300;51.874;8.430;2023-01-29T08:22:40;90.13;;;42.43;;
4575;SDS011;2300;51.874;8.430;2023-01-29T08:25:07;90.07;;;41.53;;
4575;SDS011;2300;51.874;8.430;2023-01-29T08:27:34;88.30;;;41.57;;
4575;SDS011;2300;51.874;8.430;2023-01-29T08:30:02;86.70;;;42.03;;
4575;SDS011;2300;51.874;8.430;2023-01-29T08:32:29;81.53;;;40.30;;
4575;SDS011;2300;51.874;8.430;2023-01-29T08:34:55;89.33;;;42.67;;
4575;SDS011;2300;51.874;8.430;2023-01-29T08:37:22;89.43;;;42.23;;
4575;SDS011;2300;51.874;8.430;2023-01-29T08:39:48;90.73;;;43.23;;
4575;SDS011;2300;51.874;8.430;2023-01-29T08:42:14;84.23;;;41.07;;
4575;SDS011;2300;51.874;8.430;2023-01-29T08:44:41;83.97;;;38.47;;
4575;SDS011;2300;51.874;8.430;2023-01-29T08:47:09;92.37;;;43.43;;
4575;SDS011;2300;51.874;8.430;2023-01-29T08:49:35;95.00;;;45.30;;
4575;SDS011;2300;51.874;8.430;2023-01-29T08:52:02;87.70;;;41.27;;
4575;SDS011;2300;51.874;8.430;2023-01-29T08:54:28;88.53;;;40.97;;
4575;SDS011;2300;51.874;8.430;2023-01-29T08:56:54;89.70;;;42.10;;
4575;SDS011;2300;51.874;8.430;2023-01-29T08:59:21;84.57;;;41.43;;
4575;SDS011;2300;51.874;8.430;2023-01-29T09:01:47;89.67;;;42.97;;
4575;SDS011;2300;51.874;8.430;2023-01-29T09:04:15;90.13;;;41.90;;
4575;SDS011;2300;51.874;8.430;2023-01-29T09:06:41;88.17;;;41.53;;
4575;SDS011;2300;51.874;8.430;2023-01-29T09:09:08;91.47;;;41.60;;
4575;SDS011;2300;51.874;8.430;2023-01-29T09:11:35;89.23;;;43.00;;
4575;SDS011;2300;51.874;8.430;2023-01-29T09:14:02;88.00;;;41.87;;
4575;SDS011;2300;51.874;8.430;2023-01-29T09:16:29;86.37;;;42.27;;
4575;SDS011;2300;51.874;8.430;2023-01-29T09:18:55;87.13;;;40.77;;
4575;SDS011;2300;51.874;8.430;2023-01-29T09:21:23;88.43;;;42.90;;
4575;SDS011;2300;51.874;8.430;2023-01-29T09:23:49;84.63;;;41.37;;
4575;SDS011;2300;51.874;8.430;2023-01-29T09:26:16;82.77;;;41.33;;
4575;SDS011;2300;51.874;8.430;2023-01-29T09:28:42;79.63;;;39.33;;
4575;SDS011;2300;51.874;8.430;2023-01-29T09:31:09;78.00;;;38.20;;
4575;SDS011;2300;51.874;8.430;2023-01-29T09:33:35;77.30;;;38.47;;
4575;SDS011;2300;51.874;8.430;2023-01-29T09:36:02;79.17;;;37.43;;
4575;SDS011;2300;51.874;8.430;2023-01-29T09:38:30;72.60;;;37.47;;
4575;SDS011;2300;51.874;8.430;2023-01-29T09:40:58;74.17;;;36.57;;
4575;SDS011;2300;51.874;8.430;2023-01-29T09:43:36;76.40;;;38.43;;
4575;SDS011;2300;51.874;8.430;2023-01-29T09:46:11;71.33;;;34.37;;
4575;SDS011;2300;51.874;8.430;2023-01-29T09:48:43;75.67;;;38.10;;
4575;SDS011;2300;51.874;8.430;2023-01-29T09:51:13;74.70;;;36.57;;
4575;SDS011;2300;51.874;8.430;2023-01-29T09:53:52;76.33;;;36.33;;
4575;SDS011;2300;51.874;8.430;2023-01-29T09:56:23;72.97;;;37.10;;
4575;SDS011;2300;51.874;8.430;2023-01-29T09:58:52;73.23;;;37.73;;
4575;SDS011;2300;51.874;8.430;2023-01-29T10:01:26;67.93;;;35.10;;
4575;SDS011;2300;51.874;8.430;2023-01-29T10:04:06;69.87;;;34.10;;
4575;SDS011;2300;51.874;8.430;2023-01-29T10:07:00;68.10;;;34.50;;
4575;SDS011;2300;51.874;8.430;2023-01-29T10:12:36;71.17;;;34.97;;
4575;SDS011;2300;51.874;8.430;2023-01-29T10:15:20;66.03;;;34.97;;
4575;SDS011;2300;51.874;8.430;2023-01-29T10:17:58;66.33;;;34.70;;
4575;SDS011;2300;51.874;8.430;2023-01-29T10:20:42;69.37;;;34.77;;
4575;SDS011;2300;51.874;8.430;2023-01-29T10:23:16;67.80;;;34.17;;
4575;SDS011;2300;51.874;8.430;2023-01-29T10:25:48;67.30;;;32.53;;
4575;SDS011;2300;51.874;8.430;2023-01-29T10:28:16;68.17;;;35.30;;
4575;SDS011;2300;51.874;8.430;2023-01-29T10:30:46;68.47;;;33.73;;
4575;SDS011;2300;51.874;8.430;2023-01-29T10:33:16;68.30;;;32.77;;
4575;SDS011;2300;51.874;8.430;2023-01-29T10:35:47;67.87;;;32.57;;
4575;SDS011;2300;51.874;8.430;2023-01-29T10:41:13;68.70;;;33.60;;
4575;SDS011;2300;51.874;8.430;2023-01-29T10:43:49;64.87;;;35.17;;
4575;SDS011;2300;51.874;8.430;2023-01-29T10:46:26;67.10;;;35.30;;
4575;SDS011;2300;51.874;8.430;2023-01-29T10:49:06;69.97;;;36.17;;
4575;SDS011;2300;51.874;8.430;2023-01-29T10:51:47;67.77;;;33.63;;
4575;SDS011;2300;51.874;8.430;2023-01-29T10:54:34;68.63;;;35.50;;
4575;SDS011;2300;51.874;8.430;2023-01-29T10:57:11;67.63;;;36.17;;
4575;SDS011;2300;51.874;8.430;2023-01-29T10:59:48;65.40;;;34.67;;
4575;SDS011;2300;51.874;8.430;2023-01-29T11:02:25;71.80;;;36.43;;
4575;SDS011;2300;51.874;8.430;2023-01-29T11:04:51;65.07;;;34.00;;
4575;SDS011;2300;51.874;8.430;2023-01-29T11:07:18;66.93;;;35.27;;
4575;SDS011;2300;51.874;8.430;2023-01-29T11:09:49;66.87;;;38.23;;
4575;SDS011;2300;51.874;8.430;2023-01-29T11:12:22;66.93;;;34.07;;
4575;SDS011;2300;51.874;8.430;2023-01-29T11:14:55;65.93;;;35.07;;
4575;SDS011;2300;51.874;8.430;2023-01-29T11:17:27;65.43;;;34.73;;
4575;SDS011;2300;51.874;8.430;2023-01-29T11:19:54;68.80;;;35.80;;
4575;SDS011;2300;51.874;8.430;2023-01-29T11:22:21;64.97;;;33.53;;
4575;SDS011;2300;51.874;8.430;2023-01-29T11:27:37;64.93;;;32.90;;
4575;SDS011;2300;51.874;8.430;2023-01-29T11:30:13;65.83;;;33.50;;
4575;SDS011;2300;51.874;8.430;2023-01-29T11:32:41;61.53;;;32.70;;
4575;SDS011;2300;51.874;8.430;2023-01-29T11:35:18;64.60;;;32.87;;
4575;SDS011;2300;51.874;8.430;2023-01-29T11:37:46;62.77;;;33.20;;
4575;SDS011;2300;51.874;8.430;2023-01-29T11:43:12;60.40;;;31.80;;
4575;SDS011;2300;51.874;8.430;2023-01-29T11:45:54;64.10;;;32.67;;
4575;SDS011;2300;51.874;8.430;2023-01-29T11:48:23;63.23;;;32.07;;
4575;SDS011;2300;51.874;8.430;2023-01-29T11:50:55;63.53;;;33.57;;
4575;SDS011;2300;51.874;8.430;2023-01-29T11:53:29;64.67;;;32.70;;
4575;SDS011;2300;51.874;8.430;2023-01-29T11:56:03;62.67;;;32.03;;
4575;SDS011;2300;51.874;8.430;2023-01-29T11:58:34;62.47;;;32.03;;
4575;SDS011;2300;51.874;8.430;2023-01-29T12:01:01;61.47;;;33.90;;
4575;SDS011;2300;51.874;8.430;2023-01-29T12:03:29;59.77;;;35.93;;
4575;SDS011;2300;51.874;8.430;2023-01-29T12:06:02;64.17;;;36.97;;
4575;SDS011;2300;51.874;8.430;2023-01-29T12:08:34;64.70;;;32.23;;
4575;SDS011;2300;51.874;8.430;2023-01-29T12:11:09;60.93;;;30.10;;
4575;SDS011;2300;51.874;8.430;2023-01-29T12:13:40;61.30;;;32.07;;
4575;SDS011;2300;51.874;8.430;2023-01-29T12:16:13;59.60;;;31.43;;
4575;SDS011;2300;51.874;8.430;2023-01-29T12:18:45;58.10;;;32.77;;
4575;SDS011;2300;51.874;8.430;2023-01-29T12:21:17;59.40;;;32.53;;
4575;SDS011;2300;51.874;8.430;2023-01-29T12:23:51;56.87;;;30.57;;
4575;SDS011;2300;51.874;8.430;2023-01-29T12:26:24;57.40;;;33.63;;
4575;SDS011;2300;51.874;8.430;2023-01-29T12:29:02;61.90;;;33.03;;
4575;SDS011;2300;51.874;8.430;2023-01-29T12:31:39;57.53;;;31.53;;
4575;SDS011;2300;51.874;8.430;2023-01-29T12:34:13;56.93;;;31.43;;
4575;SDS011;2300;51.874;8.430;2023-01-29T12:36:45;59.17;;;31.53;;
4575;SDS011;2300;51.874;8.430;2023-01-29T12:39:17;60.40;;;32.23;;
4575;SDS011;2300;51.874;8.430;2023-01-29T12:41:45;59.43;;;32.53;;
4575;SDS011;2300;51.874;8.430;2023-01-29T12:44:19;61.43;;;35.90;;
4575;SDS011;2300;51.874;8.430;2023-01-29T12:46:51;61.20;;;32.10;;
4575;SDS011;2300;51.874;8.430;2023-01-29T12:49:22;60.07;;;31.47;;
4575;SDS011;2300;51.874;8.430;2023-01-29T12:51:53;62.03;;;31.40;;
4575;SDS011;2300;51.874;8.430;2023-01-29T12:54:26;56.77;;;31.53;;
4575;SDS011;2300;51.874;8.430;2023-01-29T12:56:59;57.63;;;31.93;;
4575;SDS011;2300;51.874;8.430;2023-01-29T12:59:30;57.60;;;31.23;;
4575;SDS011;2300;51.874;8.430;2023-01-29T13:02:03;60.50;;;32.43;;
4575;SDS011;2300;51.874;8.430;2023-01-29T13:04:40;60.57;;;36.30;;
4575;SDS011;2300;51.874;8.430;2023-01-29T13:07:12;58.17;;;29.87;;
4575;SDS011;2300;51.874;8.430;2023-01-29T13:09:43;59.47;;;33.87;;
4575;SDS011;2300;51.874;8.430;2023-01-29T13:12:14;59.97;;;34.93;;
4575;SDS011;2300;51.874;8.430;2023-01-29T13:14:44;60.50;;;32.80;;
4575;SDS011;2300;51.874;8.430;2023-01-29T13:17:17;59.87;;;33.20;;
4575;SDS011;2300;51.874;8.430;2023-01-29T13:19:49;60.30;;;33.53;;
4575;SDS011;2300;51.874;8.430;2023-01-29T13:22:20;62.43;;;41.10;;
4575;SDS011;2300;51.874;8.430;2023-01-29T13:24:50;66.57;;;37.57;;
4575;SDS011;2300;51.874;8.430;2023-01-29T13:27:21;60.30;;;34.33;;
4575;SDS011;2300;51.874;8.430;2023-01-29T13:29:52;62.97;;;38.27;;
4575;SDS011;2300;51.874;8.430;2023-01-29T13:32:20;60.77;;;33.90;;
4575;SDS011;2300;51.874;8.430;2023-01-29T13:34:50;59.80;;;32.80;;
4575;SDS011;2300;51.874;8.430;2023-01-29T13:37:20;60.10;;;32.63;;
4575;SDS011;2300;51.874;8.430;2023-01-29T13:39:52;59.50;;;32.30;;
4575;SDS011;2300;51.874;8.430;2023-01-29T13:42:20;62.30;;;34.20;;
4575;SDS011;2300;51.874;8.430;2023-01-29T13:44:50;64.43;;;34.53;;
4575;SDS011;2300;51.874;8.430;2023-01-29T13:47:20;62.10;;;34.87;;
4575;SDS011;2300;51.874;8.430;2023-01-29T13:49:53;66.37;;;36.97;;
4575;SDS011;2300;51.874;8.430;2023-01-29T13:52:25;65.97;;;40.40;;
4575;SDS011;2300;51.874;8.430;2023-01-29T13:54:59;67.80;;;36.33;;
4575;SDS011;2300;51.874;8.430;2023-01-29T13:57:36;59.47;;;34.77;;
4575;SDS011;2300;51.874;8.430;2023-01-29T14:12:30;60.33;;;32.10;;
4575;SDS011;2300;51.874;8.430;2023-01-29T14:17:58;62.00;;;35.83;;
4575;SDS011;2300;51.874;8.430;2023-01-29T14:20:34;61.67;;;34.13;;
4575;SDS011;2300;51.874;8.430;2023-01-29T14:23:04;63.37;;;36.63;;
4575;SDS011;2300;51.874;8.430;2023-01-29T14:25:31;59.80;;;35.23;;
4575;SDS011;2300;51.874;8.430;2023-01-29T14:28:00;60.23;;;35.73;;
4575;SDS011;2300;51.874;8.430;2023-01-29T14:30:28;59.70;;;33.73;;
4575;SDS011;2300;51.874;8.430;2023-01-29T14:32:57;59.20;;;35.60;;
4575;SDS011;2300;51.874;8.430;2023-01-29T14:35:26;62.63;;;35.13;;
4575;SDS011;2300;51.874;8.430;2023-01-29T14:37:56;65.20;;;37.87;;
4575;SDS011;2300;51.874;8.430;2023-01-29T14:40:27;61.13;;;35.57;;
4575;SDS011;2300;51.874;8.430;2023-01-29T14:42:57;59.80;;;34.57;;
4575;SDS011;2300;51.874;8.430;2023-01-29T14:45:26;64.37;;;35.70;;
4575;SDS011;2300;51.874;8.430;2023-01-29T14:47:58;65.97;;;38.90;;
4575;SDS011;2300;51.874;8.430;2023-01-29T14:56:25;53.47;;;31.47;;
4575;SDS011;2300;51.874;8.430;2023-01-29T14:59:00;60.77;;;33.93;;
4575;SDS011;2300;51.874;8.430;2023-01-29T15:01:37;54.77;;;32.03;;
4575;SDS011;2300;51.874;8.430;2023-01-29T15:04:05;59.07;;;35.00;;
4575;SDS011;2300;51.874;8.430;2023-01-29T15:06:40;63.53;;;35.57;;
4575;SDS011;2300;51.874;8.430;2023-01-29T15:09:13;57.77;;;36.37;;
4575;SDS011;2300;51.874;8.430;2023-01-29T15:11:47;54.93;;;33.83;;
4575;SDS011;2300;51.874;8.430;2023-01-29T15:14:25;52.47;;;32.33;;
4575;SDS011;2300;51.874;8.430;2023-01-29T15:17:01;57.63;;;33.67;;
4575;SDS011;2300;51.874;8.430;2023-01-29T15:19:41;55.20;;;31.47;;
4575;SDS011;2300;51.874;8.430;2023-01-29T15:22:10;54.77;;;31.57;;
4575;SDS011;2300;51.874;8.430;2023-01-29T15:24:39;56.37;;;32.30;;
4575;SDS011;2300;51.874;8.430;2023-01-29T15:27:09;54.50;;;33.80;;
4575;SDS011;2300;51.874;8.430;2023-01-29T15:29:38;52.63;;;30.83;;
4575;SDS011;2300;51.874;8.430;2023-01-29T15:32:06;53.30;;;28.37;;
4575;SDS011;2300;51.874;8.430;2023-01-29T15:34:40;52.47;;;29.43;;
4575;SDS011;2300;51.874;8.430;2023-01-29T15:37:22;53.10;;;29.23;;
4575;SDS011;2300;51.874;8.430;2023-01-29T15:39:51;53.17;;;29.33;;
4575;SDS011;2300;51.874;8.430;2023-01-29T15:42:18;51.47;;;28.50;;
4575;SDS011;2300;51.874;8.430;2023-01-29T15:44:49;55.13;;;33.80;;